sensor_id;sensor_type;location;lat;lon;timestamp;P1;durP1;ratioP1;P2;durP2;ratioP2
51824;SDS011;37879;52.986;6.282;2023-02-15T00:00:16;45.65;;;24.70;;
51824;SDS011;37879;52.986;6.282;2023-02-15T00:02:42;44.28;;;24.08;;
51824;SDS011;37879;52.986;6.282;2023-02-15T00:05:08;44.72;;;25.35;;
51824;SDS011;37879;52.986;6.282;2023-02-15T00:07:34;52.67;;;24.55;;
51824;SDS011;37879;52.986;6.282;2023-02-15T00:09:59;44.45;;;24.00;;
51824;SDS011;37879;52.986;6.282;2023-02-15T00:12:25;34.92;;;21.10;;
51824;SDS011;37879;52.986;6.282;2023-02-15T00:14:51;32.90;;;19.25;;
51824;SDS011;37879;52.986;6.282;2023-02-15T00:17:16;32.03;;;19.08;;
51824;SDS011;37879;52.986;6.282;2023-02-15T00:19:42;27.50;;;17.83;;
51824;SDS011;37879;52.986;6.282;2023-02-15T00:22:08;26.58;;;15.63;;
51824;SDS011;37879;52.986;6.282;2023-02-15T00:24:33;32.03;;;17.33;;
51824;SDS011;37879;52.986;6.282;2023-02-15T00:26:59;28.55;;;16.77;;
51824;SDS011;37879;52.986;6.282;2023-02-15T00:29:25;33.55;;;19.50;;
51824;SDS011;37879;52.986;6.282;2023-02-15T00:31:51;31.20;;;18.65;;
51824;SDS011;37879;52.986;6.282;2023-02-15T00:34:18;32.28;;;18.85;;
51824;SDS011;37879;52.986;6.282;2023-02-15T00:36:45;33.83;;;20.05;;
51824;SDS011;37879;52.986;6.282;2023-02-15T00:39:11;32.42;;;18.50;;
51824;SDS011;37879;52.986;6.282;2023-02-15T00:41:37;36.50;;;18.70;;
51824;SDS011;37879;52.986;6.282;2023-02-15T00:44:03;29.02;;;16.98;;
51824;SDS011;37879;52.986;6.282;2023-02-15T00:46:29;32.80;;;17.27;;
51824;SDS011;37879;52.986;6.282;2023-02-15T00:48:56;33.47;;;19.25;;
51824;SDS011;37879;52.986;6.282;2023-02-15T00:51:21;30.15;;;18.65;;
51824;SDS011;37879;52.986;6.282;2023-02-15T00:53:47;31.10;;;18.52;;
51824;SDS011;37879;52.986;6.282;2023-02-15T00:56:13;33.45;;;20.02;;
51824;SDS011;37879;52.986;6.282;2023-02-15T00:58:39;35.33;;;19.23;;
51824;SDS011;37879;52.986;6.282;2023-02-15T01:01:09;30.17;;;18.00;;
51824;SDS011;37879;52.986;6.282;2023-02-15T01:03:36;26.77;;;16.90;;
51824;SDS011;37879;52.986;6.282;2023-02-15T01:06:02;31.50;;;19.45;;
51824;SDS011;37879;52.986;6.282;2023-02-15T01:08:29;34.28;;;21.38;;
51824;SDS011;37879;52.986;6.282;2023-02-15T01:10:55;31.30;;;19.17;;
51824;SDS011;37879;52.986;6.282;2023-02-15T01:13:21;30.20;;;18.98;;
51824;SDS011;37879;52.986;6.282;2023-02-15T01:15:52;32.40;;;18.35;;
51824;SDS011;37879;52.986;6.282;2023-02-15T01:18:19;29.30;;;17.75;;
51824;SDS011;37879;52.986;6.282;2023-02-15T01:20:45;27.95;;;16.98;;
51824;SDS011;37879;52.986;6.282;2023-02-15T01:23:12;29.05;;;18.45;;
51824;SDS011;37879;52.986;6.282;2023-02-15T01:25:38;30.83;;;17.42;;
51824;SDS011;37879;52.986;6.282;2023-02-15T01:28:03;26.65;;;16.42;;
51824;SDS011;37879;52.986;6.282;2023-02-15T01:30:29;29.58;;;17.02;;
51824;SDS011;37879;52.986;6.282;2023-02-15T01:32:55;28.98;;;16.98;;
51824;SDS011;37879;52.986;6.282;2023-02-15T01:35:21;25.08;;;15.70;;
51824;SDS011;37879;52.986;6.282;2023-02-15T01:37:47;25.15;;;15.40;;
51824;SDS011;37879;52.986;6.282;2023-02-15T01:40:13;26.50;;;16.52;;
51824;SDS011;37879;52.986;6.282;2023-02-15T01:42:41;24.67;;;15.18;;
51824;SDS011;37879;52.986;6.282;2023-02-15T01:45:21;25.45;;;15.75;;
51824;SDS011;37879;52.986;6.282;2023-02-15T01:48:02;25.52;;;15.50;;
51824;SDS011;37879;52.986;6.282;2023-02-15T01:50:52;26.05;;;16.63;;
51824;SDS011;37879;52.986;6.282;2023-02-15T01:53:22;31.30;;;18.45;;
51824;SDS011;37879;52.986;6.282;2023-02-15T01:55:59;25.98;;;15.88;;
51824;SDS011;37879;52.986;6.282;2023-02-15T01:58:29;28.40;;;17.27;;
51824;SDS011;37879;52.986;6.282;2023-02-15T02:00:57;32.00;;;18.23;;
51824;SDS011;37879;52.986;6.282;2023-02-15T02:03:47;25.20;;;14.38;;
51824;SDS011;37879;52.986;6.282;2023-02-15T02:06:23;24.83;;;16.10;;
51824;SDS011;37879;52.986;6.282;2023-02-15T02:08:49;27.95;;;16.95;;
51824;SDS011;37879;52.986;6.282;2023-02-15T02:11:16;30.55;;;16.77;;
51824;SDS011;37879;52.986;6.282;2023-02-15T02:13:42;25.88;;;15.48;;
51824;SDS011;37879;52.986;6.282;2023-02-15T02:24:41;26.52;;;16.35;;
51824;SDS011;37879;52.986;6.282;2023-02-15T02:27:12;29.40;;;16.45;;
51824;SDS011;37879;52.986;6.282;2023-02-15T02:35:10;31.80;;;17.58;;
51824;SDS011;37879;52.986;6.282;2023-02-15T02:37:46;30.38;;;16.25;;
51824;SDS011;37879;52.986;6.282;2023-02-15T02:40:23;28.35;;;16.92;;
51824;SDS011;37879;52.986;6.282;2023-02-15T02:43:10;25.55;;;15.75;;
51824;SDS011;37879;52.986;6.282;2023-02-15T02:45:45;31.13;;;17.60;;
51824;SDS011;37879;52.986;6.282;2023-02-15T02:48:26;33.38;;;17.88;;
51824;SDS011;37879;52.986;6.282;2023-02-15T02:50:55;31.08;;;17.63;;
51824;SDS011;37879;52.986;6.282;2023-02-15T02:53:21;29.83;;;17.50;;
51824;SDS011;37879;52.986;6.282;2023-02-15T02:55:48;31.27;;;17.15;;
51824;SDS011;37879;52.986;6.282;2023-02-15T02:58:20;34.90;;;18.50;;
51824;SDS011;37879;52.986;6.282;2023-02-15T03:00:54;28.70;;;16.98;;
51824;SDS011;37879;52.986;6.282;2023-02-15T03:06:28;29.83;;;17.05;;
51824;SDS011;37879;52.986;6.282;2023-02-15T03:09:10;36.58;;;19.52;;
51824;SDS011;37879;52.986;6.282;2023-02-15T03:11:43;33.42;;;19.15;;
51824;SDS011;37879;52.986;6.282;2023-02-15T03:14:10;29.48;;;16.45;;
51824;SDS011;37879;52.986;6.282;2023-02-15T03:16:38;29.35;;;17.52;;
51824;SDS011;37879;52.986;6.282;2023-02-15T03:19:12;31.25;;;18.00;;
51824;SDS011;37879;52.986;6.282;2023-02-15T03:21:50;30.13;;;17.98;;
51824;SDS011;37879;52.986;6.282;2023-02-15T03:24:27;35.35;;;18.27;;
51824;SDS011;37879;52.986;6.282;2023-02-15T03:27:08;35.92;;;19.85;;
51824;SDS011;37879;52.986;6.282;2023-02-15T03:29:37;32.67;;;17.83;;
51824;SDS011;37879;52.986;6.282;2023-02-15T03:32:04;33.47;;;19.67;;
51824;SDS011;37879;52.986;6.282;2023-02-15T03:34:33;39.03;;;22.38;;
51824;SDS011;37879;52.986;6.282;2023-02-15T03:37:09;35.28;;;18.23;;
51824;SDS011;37879;52.986;6.282;2023-02-15T03:39:45;29.08;;;16.65;;
51824;SDS011;37879;52.986;6.282;2023-02-15T03:42:39;29.55;;;16.23;;
51824;SDS011;37879;52.986;6.282;2023-02-15T03:45:17;32.53;;;17.98;;
51824;SDS011;37879;52.986;6.282;2023-02-15T03:47:50;35.92;;;19.77;;
51824;SDS011;37879;52.986;6.282;2023-02-15T03:50:21;32.38;;;18.73;;
51824;SDS011;37879;52.986;6.282;2023-02-15T03:53:16;31.10;;;17.63;;
51824;SDS011;37879;52.986;6.282;2023-02-15T03:55:49;35.63;;;18.42;;
51824;SDS011;37879;52.986;6.282;2023-02-15T03:58:18;32.53;;;17.65;;
51824;SDS011;37879;52.986;6.282;2023-02-15T04:01:21;31.75;;;17.00;;
51824;SDS011;37879;52.986;6.282;2023-02-15T04:04:21;35.15;;;21.10;;
51824;SDS011;37879;52.986;6.282;2023-02-15T04:06:49;35.15;;;18.85;;
51824;SDS011;37879;52.986;6.282;2023-02-15T04:09:15;33.72;;;19.30;;
51824;SDS011;37879;52.986;6.282;2023-02-15T04:11:59;32.60;;;17.10;;
51824;SDS011;37879;52.986;6.282;2023-02-15T04:14:25;28.48;;;17.42;;
51824;SDS011;37879;52.986;6.282;2023-02-15T04:17:10;29.30;;;17.35;;
51824;SDS011;37879;52.986;6.282;2023-02-15T04:19:35;34.20;;;18.90;;
51824;SDS011;37879;52.986;6.282;2023-02-15T04:22:20;35.35;;;18.50;;
51824;SDS011;37879;52.986;6.282;2023-02-15T04:25:04;29.23;;;16.50;;
51824;SDS011;37879;52.986;6.282;2023-02-15T04:27:40;32.97;;;17.42;;
51824;SDS011;37879;52.986;6.282;2023-02-15T04:30:07;28.05;;;16.15;;
51824;SDS011;37879;52.986;6.282;2023-02-15T04:32:34;31.00;;;17.80;;
51824;SDS011;37879;52.986;6.282;2023-02-15T04:35:00;32.20;;;17.88;;
51824;SDS011;37879;52.986;6.282;2023-02-15T04:37:26;32.05;;;17.52;;
51824;SDS011;37879;52.986;6.282;2023-02-15T04:39:51;29.95;;;17.10;;
51824;SDS011;37879;52.986;6.282;2023-02-15T04:42:17;27.63;;;17.40;;
51824;SDS011;37879;52.986;6.282;2023-02-15T04:44:43;30.90;;;17.95;;
51824;SDS011;37879;52.986;6.282;2023-02-15T04:47:09;30.50;;;17.20;;
51824;SDS011;37879;52.986;6.282;2023-02-15T04:49:34;27.55;;;16.95;;
51824;SDS011;37879;52.986;6.282;2023-02-15T04:52:00;33.05;;;17.85;;
51824;SDS011;37879;52.986;6.282;2023-02-15T04:54:26;32.03;;;18.48;;
51824;SDS011;37879;52.986;6.282;2023-02-15T04:56:51;36.20;;;18.65;;
51824;SDS011;37879;52.986;6.282;2023-02-15T04:59:17;33.53;;;17.95;;
51824;SDS011;37879;52.986;6.282;2023-02-15T05:01:42;35.85;;;18.75;;
51824;SDS011;37879;52.986;6.282;2023-02-15T05:04:08;33.80;;;18.95;;
51824;SDS011;37879;52.986;6.282;2023-02-15T05:06:34;35.60;;;18.73;;
51824;SDS011;37879;52.986;6.282;2023-02-15T05:08:59;36.88;;;20.70;;
51824;SDS011;37879;52.986;6.282;2023-02-15T05:11:25;38.17;;;19.33;;
51824;SDS011;37879;52.986;6.282;2023-02-15T05:13:51;35.20;;;18.05;;
51824;SDS011;37879;52.986;6.282;2023-02-15T05:16:17;37.45;;;20.67;;
51824;SDS011;37879;52.986;6.282;2023-02-15T05:18:43;34.72;;;20.52;;
51824;SDS011;37879;52.986;6.282;2023-02-15T05:21:08;32.03;;;18.27;;
51824;SDS011;37879;52.986;6.282;2023-02-15T05:23:34;36.72;;;21.10;;
51824;SDS011;37879;52.986;6.282;2023-02-15T05:26:00;39.80;;;22.33;;
51824;SDS011;37879;52.986;6.282;2023-02-15T05:28:44;40.65;;;23.30;;
51824;SDS011;37879;52.986;6.282;2023-02-15T05:31:11;48.80;;;27.60;;
51824;SDS011;37879;52.986;6.282;2023-02-15T05:33:39;48.65;;;26.35;;
51824;SDS011;37879;52.986;6.282;2023-02-15T05:36:05;108.68;;;51.25;;
51824;SDS011;37879;52.986;6.282;2023-02-15T05:38:32;105.30;;;51.20;;
51824;SDS011;37879;52.986;6.282;2023-02-15T05:40:58;89.60;;;44.67;;
51824;SDS011;37879;52.986;6.282;2023-02-15T05:43:24;76.78;;;36.15;;
51824;SDS011;37879;52.986;6.282;2023-02-15T05:45:51;65.97;;;32.67;;
51824;SDS011;37879;52.986;6.282;2023-02-15T05:48:18;58.38;;;28.80;;
51824;SDS011;37879;52.986;6.282;2023-02-15T05:50:45;53.40;;;28.00;;
51824;SDS011;37879;52.986;6.282;2023-02-15T05:53:11;50.92;;;28.73;;
51824;SDS011;37879;52.986;6.282;2023-02-15T05:55:37;48.30;;;24.80;;
51824;SDS011;37879;52.986;6.282;2023-02-15T05:58:04;51.72;;;28.73;;
51824;SDS011;37879;52.986;6.282;2023-02-15T06:00:30;48.97;;;26.83;;
51824;SDS011;37879;52.986;6.282;2023-02-15T06:02:56;45.88;;;24.30;;
51824;SDS011;37879;52.986;6.282;2023-02-15T06:05:22;48.22;;;27.27;;
51824;SDS011;37879;52.986;6.282;2023-02-15T06:07:48;47.30;;;26.42;;
51824;SDS011;37879;52.986;6.282;2023-02-15T06:10:13;46.40;;;26.67;;
51824;SDS011;37879;52.986;6.282;2023-02-15T06:12:39;43.40;;;26.38;;
51824;SDS011;37879;52.986;6.282;2023-02-15T06:15:05;45.40;;;25.42;;
51824;SDS011;37879;52.986;6.282;2023-02-15T06:17:31;44.10;;;24.38;;
51824;SDS011;37879;52.986;6.282;2023-02-15T06:19:56;46.22;;;25.58;;
51824;SDS011;37879;52.986;6.282;2023-02-15T06:22:22;48.13;;;25.60;;
51824;SDS011;37879;52.986;6.282;2023-02-15T06:24:48;47.38;;;25.25;;
51824;SDS011;37879;52.986;6.282;2023-02-15T06:27:13;50.88;;;28.95;;
51824;SDS011;37879;52.986;6.282;2023-02-15T06:29:39;48.78;;;25.90;;
51824;SDS011;37879;52.986;6.282;2023-02-15T06:32:05;58.80;;;30.00;;
51824;SDS011;37879;52.986;6.282;2023-02-15T06:34:31;64.72;;;31.95;;
51824;SDS011;37879;52.986;6.282;2023-02-15T06:36:57;62.50;;;32.63;;
51824;SDS011;37879;52.986;6.282;2023-02-15T06:39:22;61.40;;;30.90;;
51824;SDS011;37879;52.986;6.282;2023-02-15T06:41:48;64.28;;;31.85;;
51824;SDS011;37879;52.986;6.282;2023-02-15T06:44:14;54.05;;;29.25;;
51824;SDS011;37879;52.986;6.282;2023-02-15T06:46:39;42.03;;;25.13;;
51824;SDS011;37879;52.986;6.282;2023-02-15T06:49:05;41.50;;;23.38;;
51824;SDS011;37879;52.986;6.282;2023-02-15T06:51:31;46.50;;;24.60;;
51824;SDS011;37879;52.986;6.282;2023-02-15T06:53:56;43.63;;;24.20;;
51824;SDS011;37879;52.986;6.282;2023-02-15T06:56:22;39.85;;;21.92;;
51824;SDS011;37879;52.986;6.282;2023-02-15T06:58:47;40.97;;;22.67;;
51824;SDS011;37879;52.986;6.282;2023-02-15T07:01:17;40.30;;;23.15;;
51824;SDS011;37879;52.986;6.282;2023-02-15T07:03:43;47.00;;;23.33;;
51824;SDS011;37879;52.986;6.282;2023-02-15T07:06:09;47.38;;;23.45;;
51824;SDS011;37879;52.986;6.282;2023-02-15T07:08:36;38.70;;;22.58;;
51824;SDS011;37879;52.986;6.282;2023-02-15T07:11:03;41.63;;;23.63;;
51824;SDS011;37879;52.986;6.282;2023-02-15T07:13:48;46.20;;;23.42;;
51824;SDS011;37879;52.986;6.282;2023-02-15T07:16:14;40.50;;;21.88;;
51824;SDS011;37879;52.986;6.282;2023-02-15T07:18:40;45.53;;;23.63;;
51824;SDS011;37879;52.986;6.282;2023-02-15T07:21:06;40.05;;;22.65;;
51824;SDS011;37879;52.986;6.282;2023-02-15T07:23:34;48.20;;;25.50;;
51824;SDS011;37879;52.986;6.282;2023-02-15T07:26:00;40.92;;;21.13;;
51824;SDS011;37879;52.986;6.282;2023-02-15T07:28:27;42.40;;;22.77;;
51824;SDS011;37879;52.986;6.282;2023-02-15T07:30:53;40.90;;;23.00;;
51824;SDS011;37879;52.986;6.282;2023-02-15T07:33:18;38.63;;;22.63;;
51824;SDS011;37879;52.986;6.282;2023-02-15T07:35:52;41.78;;;21.48;;
51824;SDS011;37879;52.986;6.282;2023-02-15T07:38:20;41.67;;;24.50;;
51824;SDS011;37879;52.986;6.282;2023-02-15T07:40:46;41.65;;;22.73;;
51824;SDS011;37879;52.986;6.282;2023-02-15T07:43:12;40.92;;;22.27;;
51824;SDS011;37879;52.986;6.282;2023-02-15T07:45:38;40.45;;;22.40;;
51824;SDS011;37879;52.986;6.282;2023-02-15T07:48:04;33.28;;;18.70;;
51824;SDS011;37879;52.986;6.282;2023-02-15T07:50:31;36.22;;;21.02;;
51824;SDS011;37879;52.986;6.282;2023-02-15T07:52:57;37.33;;;20.20;;
51824;SDS011;37879;52.986;6.282;2023-02-15T07:55:23;38.25;;;20.63;;
51824;SDS011;37879;52.986;6.282;2023-02-15T07:57:49;33.20;;;20.10;;
51824;SDS011;37879;52.986;6.282;2023-02-15T08:00:17;39.35;;;22.05;;
51824;SDS011;37879;52.986;6.282;2023-02-15T08:02:48;38.60;;;22.77;;
51824;SDS011;37879;52.986;6.282;2023-02-15T08:05:35;38.40;;;21.75;;
51824;SDS011;37879;52.986;6.282;2023-02-15T08:08:00;34.10;;;20.48;;
51824;SDS011;37879;52.986;6.282;2023-02-15T08:10:26;42.97;;;22.67;;
51824;SDS011;37879;52.986;6.282;2023-02-15T08:13:12;37.45;;;20.65;;
51824;SDS011;37879;52.986;6.282;2023-02-15T08:15:37;41.85;;;22.40;;
51824;SDS011;37879;52.986;6.282;2023-02-15T08:18:03;28.73;;;17.83;;
51824;SDS011;37879;52.986;6.282;2023-02-15T08:20:29;36.20;;;20.90;;
51824;SDS011;37879;52.986;6.282;2023-02-15T08:22:54;34.88;;;20.42;;
51824;SDS011;37879;52.986;6.282;2023-02-15T08:25:20;41.92;;;24.20;;
51824;SDS011;37879;52.986;6.282;2023-02-15T08:27:45;35.88;;;20.00;;
51824;SDS011;37879;52.986;6.282;2023-02-15T08:30:11;31.63;;;19.30;;
51824;SDS011;37879;52.986;6.282;2023-02-15T08:32:39;36.60;;;22.02;;
51824;SDS011;37879;52.986;6.282;2023-02-15T08:35:04;40.10;;;21.85;;
51824;SDS011;37879;52.986;6.282;2023-02-15T08:37:30;35.08;;;20.52;;
51824;SDS011;37879;52.986;6.282;2023-02-15T08:39:56;34.55;;;19.42;;
51824;SDS011;37879;52.986;6.282;2023-02-15T08:42:21;42.03;;;23.58;;
51824;SDS011;37879;52.986;6.282;2023-02-15T08:44:47;36.50;;;21.23;;
51824;SDS011;37879;52.986;6.282;2023-02-15T08:47:15;30.63;;;18.02;;
51824;SDS011;37879;52.986;6.282;2023-02-15T08:49:41;33.72;;;19.15;;
51824;SDS011;37879;52.986;6.282;2023-02-15T08:52:06;43.42;;;21.83;;
51824;SDS011;37879;52.986;6.282;2023-02-15T08:54:32;39.22;;;21.45;;
51824;SDS011;37879;52.986;6.282;2023-02-15T08:56:58;36.65;;;21.52;;
51824;SDS011;37879;52.986;6.282;2023-02-15T08:59:24;36.10;;;21.73;;
51824;SDS011;37879;52.986;6.282;2023-02-15T09:01:52;38.80;;;23.13;;
51824;SDS011;37879;52.986;6.282;2023-02-15T09:04:18;39.28;;;20.67;;
51824;SDS011;37879;52.986;6.282;2023-02-15T09:06:45;36.95;;;20.42;;
51824;SDS011;37879;52.986;6.282;2023-02-15T09:09:12;39.03;;;20.30;;
51824;SDS011;37879;52.986;6.282;2023-02-15T09:11:39;40.28;;;20.63;;
51824;SDS011;37879;52.986;6.282;2023-02-15T09:14:10;38.75;;;21.73;;
51824;SDS011;37879;52.986;6.282;2023-02-15T09:16:41;34.33;;;18.58;;
51824;SDS011;37879;52.986;6.282;2023-02-15T09:19:14;33.78;;;19.92;;
51824;SDS011;37879;52.986;6.282;2023-02-15T09:21:40;36.97;;;19.80;;
51824;SDS011;37879;52.986;6.282;2023-02-15T09:24:07;37.90;;;22.00;;
51824;SDS011;37879;52.986;6.282;2023-02-15T09:26:37;44.70;;;24.67;;
51824;SDS011;37879;52.986;6.282;2023-02-15T09:29:07;45.05;;;25.02;;
51824;SDS011;37879;52.986;6.282;2023-02-15T09:31:37;43.95;;;24.98;;
51824;SDS011;37879;52.986;6.282;2023-02-15T09:34:06;41.53;;;22.73;;
51824;SDS011;37879;52.986;6.282;2023-02-15T09:36:35;38.25;;;22.77;;
51824;SDS011;37879;52.986;6.282;2023-02-15T09:39:13;43.28;;;23.90;;
51824;SDS011;37879;52.986;6.282;2023-02-15T09:50:06;44.17;;;24.90;;
51824;SDS011;37879;52.986;6.282;2023-02-15T09:58:01;48.88;;;27.27;;
51824;SDS011;37879;52.986;6.282;2023-02-15T10:00:43;41.53;;;25.13;;
51824;SDS011;37879;52.986;6.282;2023-02-15T10:06:12;43.60;;;25.02;;
51824;SDS011;37879;52.986;6.282;2023-02-15T10:23:30;47.63;;;27.20;;
51824;SDS011;37879;52.986;6.282;2023-02-15T10:26:19;47.47;;;26.15;;
51824;SDS011;37879;52.986;6.282;2023-02-15T10:31:34;45.05;;;25.88;;
51824;SDS011;37879;52.986;6.282;2023-02-15T10:34:27;45.45;;;26.58;;
51824;SDS011;37879;52.986;6.282;2023-02-15T10:43:49;47.92;;;26.45;;
51824;SDS011;37879;52.986;6.282;2023-02-15T10:46:51;43.92;;;25.20;;
51824;SDS011;37879;52.986;6.282;2023-02-15T10:58:23;42.13;;;22.50;;
51824;SDS011;37879;52.986;6.282;2023-02-15T11:06:14;45.85;;;23.92;;
51824;SDS011;37879;52.986;6.282;2023-02-15T11:08:50;42.53;;;24.52;;
51824;SDS011;37879;52.986;6.282;2023-02-15T11:14:15;39.83;;;23.23;;
51824;SDS011;37879;52.986;6.282;2023-02-15T11:16:46;39.08;;;22.75;;
51824;SDS011;37879;52.986;6.282;2023-02-15T11:21:46;43.35;;;25.73;;
51824;SDS011;37879;52.986;6.282;2023-02-15T11:24:19;46.80;;;26.88;;
51824;SDS011;37879;52.986;6.282;2023-02-15T11:26:46;44.05;;;26.08;;
51824;SDS011;37879;52.986;6.282;2023-02-15T11:29:25;42.80;;;23.65;;
51824;SDS011;37879;52.986;6.282;2023-02-15T11:31:56;42.58;;;26.08;;
51824;SDS011;37879;52.986;6.282;2023-02-15T11:35:01;41.10;;;25.02;;
51824;SDS011;37879;52.986;6.282;2023-02-15T11:37:32;43.10;;;25.67;;
51824;SDS011;37879;52.986;6.282;2023-02-15T11:40:03;42.85;;;26.83;;
51824;SDS011;37879;52.986;6.282;2023-02-15T11:42:59;38.95;;;23.20;;
51824;SDS011;37879;52.986;6.282;2023-02-15T11:45:46;43.63;;;26.02;;
51824;SDS011;37879;52.986;6.282;2023-02-15T11:48:13;48.47;;;28.70;;
51824;SDS011;37879;52.986;6.282;2023-02-15T11:50:40;44.50;;;26.40;;
51824;SDS011;37879;52.986;6.282;2023-02-15T11:53:15;46.75;;;25.85;;
51824;SDS011;37879;52.986;6.282;2023-02-15T11:55:43;49.47;;;27.88;;
51824;SDS011;37879;52.986;6.282;2023-02-15T12:06:35;45.53;;;27.60;;
51824;SDS011;37879;52.986;6.282;2023-02-15T12:14:49;41.17;;;25.23;;
51824;SDS011;37879;52.986;6.282;2023-02-15T12:17:26;42.83;;;25.80;;
51824;SDS011;37879;52.986;6.282;2023-02-15T12:19:56;44.05;;;25.25;;
51824;SDS011;37879;52.986;6.282;2023-02-15T12:24:55;43.50;;;26.50;;
51824;SDS011;37879;52.986;6.282;2023-02-15T12:27:25;45.38;;;26.90;;
51824;SDS011;37879;52.986;6.282;2023-02-15T12:29:59;45.03;;;25.98;;
51824;SDS011;37879;52.986;6.282;2023-02-15T12:32:33;40.78;;;23.65;;
51824;SDS011;37879;52.986;6.282;2023-02-15T12:35:08;39.88;;;23.75;;
51824;SDS011;37879;52.986;6.282;2023-02-15T12:37:39;39.85;;;23.00;;
51824;SDS011;37879;52.986;6.282;2023-02-15T12:40:24;42.17;;;23.77;;
51824;SDS011;37879;52.986;6.282;2023-02-15T12:42:52;35.55;;;21.95;;
51824;SDS011;37879;52.986;6.282;2023-02-15T12:45:20;38.75;;;22.35;;
51824;SDS011;37879;52.986;6.282;2023-02-15T12:47:46;42.42;;;22.15;;
51824;SDS011;37879;52.986;6.282;2023-02-15T12:53:10;39.05;;;22.08;;
51824;SDS011;37879;52.986;6.282;2023-02-15T12:56:04;39.55;;;24.20;;
51824;SDS011;37879;52.986;6.282;2023-02-15T12:58:32;42.67;;;23.42;;
51824;SDS011;37879;52.986;6.282;2023-02-15T13:06:28;40.90;;;22.08;;
51824;SDS011;37879;52.986;6.282;2023-02-15T13:12:08;36.50;;;22.00;;
51824;SDS011;37879;52.986;6.282;2023-02-15T13:17:10;42.03;;;23.08;;
51824;SDS011;37879;52.986;6.282;2023-02-15T13:19:42;39.75;;;23.65;;
51824;SDS011;37879;52.986;6.282;2023-02-15T13:22:15;34.90;;;22.42;;
51824;SDS011;37879;52.986;6.282;2023-02-15T13:25:04;37.33;;;21.55;;
51824;SDS011;37879;52.986;6.282;2023-02-15T13:27:40;41.55;;;23.08;;
51824;SDS011;37879;52.986;6.282;2023-02-15T13:30:13;37.40;;;23.00;;
51824;SDS011;37879;52.986;6.282;2023-02-15T13:33:25;32.30;;;20.23;;
51824;SDS011;37879;52.986;6.282;2023-02-15T13:36:10;35.92;;;22.08;;
51824;SDS011;37879;52.986;6.282;2023-02-15T13:39:06;36.28;;;21.50;;
51824;SDS011;37879;52.986;6.282;2023-02-15T13:41:58;33.80;;;21.00;;
51824;SDS011;37879;52.986;6.282;2023-02-15T13:56:17;35.75;;;21.23;;
51824;SDS011;37879;52.986;6.282;2023-02-15T14:01:39;35.50;;;21.83;;
51824;SDS011;37879;52.986;6.282;2023-02-15T14:20:36;39.80;;;21.88;;
51824;SDS011;37879;52.986;6.282;2023-02-15T14:31:43;29.20;;;20.67;;
51824;SDS011;37879;52.986;6.282;2023-02-15T14:34:18;30.55;;;19.73;;
51824;SDS011;37879;52.986;6.282;2023-02-15T14:36:49;34.42;;;21.25;;
51824;SDS011;37879;52.986;6.282;2023-02-15T14:39:36;33.95;;;20.52;;
51824;SDS011;37879;52.986;6.282;2023-02-15T14:45:15;33.83;;;20.27;;
51824;SDS011;37879;52.986;6.282;2023-02-15T14:48:02;32.92;;;20.08;;
51824;SDS011;37879;52.986;6.282;2023-02-15T14:55:41;30.60;;;20.55;;
51824;SDS011;37879;52.986;6.282;2023-02-15T14:58:10;31.23;;;20.35;;
51824;SDS011;37879;52.986;6.282;2023-02-15T15:00:38;32.95;;;19.33;;
51824;SDS011;37879;52.986;6.282;2023-02-15T15:03:21;34.63;;;20.85;;
51824;SDS011;37879;52.986;6.282;2023-02-15T15:05:51;32.95;;;19.98;;
51824;SDS011;37879;52.986;6.282;2023-02-15T15:08:27;36.65;;;20.75;;
51824;SDS011;37879;52.986;6.282;2023-02-15T15:11:36;33.63;;;21.60;;
51824;SDS011;37879;52.986;6.282;2023-02-15T15:14:01;33.50;;;20.15;;
51824;SDS011;37879;52.986;6.282;2023-02-15T15:19:00;37.17;;;21.73;;
51824;SDS011;37879;52.986;6.282;2023-02-15T15:24:54;35.30;;;21.98;;
51824;SDS011;37879;52.986;6.282;2023-02-15T15:32:55;32.77;;;20.20;;
51824;SDS011;37879;52.986;6.282;2023-02-15T15:44:04;36.60;;;21.42;;
51824;SDS011;37879;52.986;6.282;2023-02-15T15:46:39;38.25;;;23.02;;
51824;SDS011;37879;52.986;6.282;2023-02-15T15:49:12;37.83;;;22.48;;
51824;SDS011;37879;52.986;6.282;2023-02-15T15:51:42;36.45;;;22.17;;
51824;SDS011;37879;52.986;6.282;2023-02-15T15:54:16;37.45;;;23.85;;
51824;SDS011;37879;52.986;6.282;2023-02-15T15:56:44;40.15;;;22.65;;
51824;SDS011;37879;52.986;6.282;2023-02-15T15:59:19;36.67;;;23.25;;
51824;SDS011;37879;52.986;6.282;2023-02-15T16:01:50;41.15;;;23.60;;
51824;SDS011;37879;52.986;6.282;2023-02-15T16:04:26;35.53;;;22.20;;
51824;SDS011;37879;52.986;6.282;2023-02-15T16:06:55;40.03;;;24.30;;
51824;SDS011;37879;52.986;6.282;2023-02-15T16:09:40;41.65;;;25.23;;
51824;SDS011;37879;52.986;6.282;2023-02-15T16:12:11;40.47;;;24.13;;
51824;SDS011;37879;52.986;6.282;2023-02-15T16:14:40;36.83;;;21.33;;
51824;SDS011;37879;52.986;6.282;2023-02-15T16:17:13;40.38;;;22.85;;
51824;SDS011;37879;52.986;6.282;2023-02-15T16:19:44;42.78;;;26.67;;
51824;SDS011;37879;52.986;6.282;2023-02-15T16:22:11;59.00;;;32.35;;
51824;SDS011;37879;52.986;6.282;2023-02-15T16:27:33;40.80;;;26.13;;
51824;SDS011;37879;52.986;6.282;2023-02-15T16:33:05;41.03;;;23.00;;
51824;SDS011;37879;52.986;6.282;2023-02-15T16:35:36;36.15;;;22.30;;
51824;SDS011;37879;52.986;6.282;2023-02-15T16:38:05;41.28;;;23.27;;
51824;SDS011;37879;52.986;6.282;2023-02-15T16:40:39;39.58;;;24.15;;
51824;SDS011;37879;52.986;6.282;2023-02-15T16:43:10;40.90;;;24.60;;
51824;SDS011;37879;52.986;6.282;2023-02-15T16:45:47;42.13;;;24.67;;
51824;SDS011;37879;52.986;6.282;2023-02-15T16:48:17;43.53;;;24.45;;
51824;SDS011;37879;52.986;6.282;2023-02-15T16:50:51;39.15;;;23.92;;
51824;SDS011;37879;52.986;6.282;2023-02-15T16:53:20;46.13;;;24.45;;
51824;SDS011;37879;52.986;6.282;2023-02-15T16:55:51;44.88;;;24.20;;
51824;SDS011;37879;52.986;6.282;2023-02-15T16:58:29;45.15;;;25.23;;
51824;SDS011;37879;52.986;6.282;2023-02-15T17:01:05;42.33;;;23.98;;
51824;SDS011;37879;52.986;6.282;2023-02-15T17:03:34;37.70;;;24.73;;
51824;SDS011;37879;52.986;6.282;2023-02-15T17:06:00;42.20;;;24.73;;
51824;SDS011;37879;52.986;6.282;2023-02-15T17:08:32;43.45;;;23.63;;
51824;SDS011;37879;52.986;6.282;2023-02-15T17:13:37;40.95;;;22.85;;
51824;SDS011;37879;52.986;6.282;2023-02-15T17:18:50;44.03;;;24.20;;
51824;SDS011;37879;52.986;6.282;2023-02-15T17:21:17;48.15;;;26.55;;
51824;SDS011;37879;52.986;6.282;2023-02-15T17:23:46;40.03;;;23.92;;
51824;SDS011;37879;52.986;6.282;2023-02-15T17:26:29;40.03;;;22.75;;
51824;SDS011;37879;52.986;6.282;2023-02-15T17:29:02;47.05;;;24.58;;
51824;SDS011;37879;52.986;6.282;2023-02-15T17:31:31;40.72;;;24.20;;
51824;SDS011;37879;52.986;6.282;2023-02-15T17:33:58;42.10;;;23.73;;
51824;SDS011;37879;52.986;6.282;2023-02-15T17:36:26;41.70;;;23.20;;
51824;SDS011;37879;52.986;6.282;2023-02-15T17:41:23;47.17;;;25.70;;
51824;SDS011;37879;52.986;6.282;2023-02-15T17:43:53;49.70;;;26.60;;
51824;SDS011;37879;52.986;6.282;2023-02-15T17:46:19;42.65;;;24.15;;
51824;SDS011;37879;52.986;6.282;2023-02-15T17:48:48;45.38;;;25.63;;
51824;SDS011;37879;52.986;6.282;2023-02-15T17:51:16;44.88;;;24.88;;